Time;durP1;ratioP1;P1;durP2;ratioP2;P2;SDS_P1;SDS_P2;PMS_P1;PMS_P2;Temp;Humidity;BMP_temperature;BMP_pressure;BME280_temperature;BME280_humidity;BME280_pressure;Samples;Min_cycle;Max_cycle;Signal;HPM_P1;HPM_P2
2021/07/09 00:01:25;;;;;;;17.63;15.90;;;;;;;;;;2072588;28;20183;-60
2021/07/09 00:02:26;;;;;;;18.00;16.17;;;;;;;;;;2071348;28;20188;-60
2021/07/09 00:03:26;;;;;;;16.73;15.02;;;;;;;;;;2069869;28;20339;-58
2021/07/09 00:04:26;;;;;;;21.67;15.75;;;;;;;;;;2072003;28;20288;-60
2021/07/09 00:05:26;;;;;;;18.00;16.15;;;;;;;;;;2070934;28;20161;-60
2021/07/09 00:06:27;;;;;;;17.38;14.77;;;;;;;;;;2067485;28;20188;-59
2021/07/09 00:07:27;;;;;;;17.63;15.80;;;;;;;;;;2068850;28;20250;-59
2021/07/09 00:08:27;;;;;;;19.20;15.90;;;;;;;;;;2068321;28;20733;-63
2021/07/09 00:09:28;;;;;;;18.58;16.15;;;;;;;;;;2072475;28;20540;-59
2021/07/09 00:10:28;;;;;;;17.83;15.90;;;;;;;;;;2064502;28;20201;-60
2021/07/09 00:11:28;;;;;;;18.75;15.90;;;;;;;;;;2071841;28;20168;-59
2021/07/09 00:12:28;;;;;;;18.10;16.33;;;;;;;;;;2066592;28;20178;-59
2021/07/09 00:13:29;;;;;;;17.80;14.75;;;;;;;;;;2067216;28;20212;-60
2021/07/09 00:14:31;;;;;;;18.92;16.40;;;;;;;;;;2070215;28;20263;-60
2021/07/09 00:15:31;;;;;;;21.95;17.08;;;;;;;;;;2072039;28;20268;-60
2021/07/09 00:16:31;;;;;;;17.95;16.17;;;;;;;;;;2073223;28;20222;-60
2021/07/09 00:17:32;;;;;;;22.05;17.42;;;;;;;;;;2066675;28;20650;-60
2021/07/09 00:18:32;;;;;;;16.95;15.20;;;;;;;;;;2066375;28;20237;-57
2021/07/09 00:19:33;;;;;;;20.35;17.15;;;;;;;;;;2071149;28;20193;-60
2021/07/09 00:20:33;;;;;;;18.50;16.65;;;;;;;;;;2071472;28;20250;-60
2021/07/09 00:21:34;;;;;;;18.38;16.60;;;;;;;;;;2066064;28;20267;-60
2021/07/09 00:22:34;;;;;;;19.85;16.23;;;;;;;;;;2066376;28;20185;-59
2021/07/09 00:23:35;;;;;;;19.13;16.88;;;;;;;;;;2071403;28;20275;-61
2021/07/09 00:24:35;;;;;;;18.20;16.45;;;;;;;;;;2065946;28;20169;-60
2021/07/09 00:25:36;;;;;;;19.45;16.73;;;;;;;;;;2064962;28;20239;-60
2021/07/09 00:26:36;;;;;;;19.33;16.63;;;;;;;;;;2065070;28;20180;-57
2021/07/09 00:27:36;;;;;;;19.80;16.52;;;;;;;;;;2067449;28;20177;-60
2021/07/09 00:28:37;;;;;;;18.33;16.40;;;;;;;;;;2068213;28;20165;-60
2021/07/09 00:29:37;;;;;;;19.35;17.00;;;;;;;;;;2072107;28;20231;-60
2021/07/09 00:30:37;;;;;;;18.92;16.45;;;;;;;;;;2066086;28;20185;-60
2021/07/09 00:31:37;;;;;;;20.42;18.20;;;;;;;;;;2071284;28;20169;-60
2021/07/09 00:32:38;;;;;;;21.88;17.95;;;;;;;;;;2070890;28;20179;-59
2021/07/09 00:33:39;;;;;;;18.83;16.48;;;;;;;;;;2065166;28;20717;-59
2021/07/09 00:34:39;;;;;;;20.65;16.50;;;;;;;;;;2066256;28;20482;-57
2021/07/09 00:35:39;;;;;;;19.92;17.77;;;;;;;;;;2073124;28;20173;-55
2021/07/09 00:36:39;;;;;;;22.58;18.33;;;;;;;;;;2065467;28;20605;-58
2021/07/09 00:37:40;;;;;;;19.23;17.23;;;;;;;;;;2072612;28;20668;-58
2021/07/09 00:38:40;;;;;;;22.90;17.35;;;;;;;;;;2072104;28;20213;-58
2021/07/09 00:39:40;;;;;;;18.75;16.83;;;;;;;;;;2064854;28;20200;-57
2021/07/09 00:40:41;;;;;;;19.13;17.20;;;;;;;;;;2064613;28;20277;-60
2021/07/09 00:41:41;;;;;;;19.10;17.20;;;;;;;;;;2064898;28;20178;-56
2021/07/09 00:42:42;;;;;;;21.83;16.05;;;;;;;;;;2072394;28;20173;-55
2021/07/09 00:43:42;;;;;;;21.00;17.98;;;;;;;;;;2072888;28;20613;-58
2021/07/09 00:44:43;;;;;;;20.77;18.58;;;;;;;;;;2065172;28;20213;-57
2021/07/09 00:45:43;;;;;;;20.67;17.50;;;;;;;;;;2065023;28;20177;-60
2021/07/09 00:46:43;;;;;;;21.95;17.70;;;;;;;;;;2064889;28;20630;-55
2021/07/09 00:47:44;;;;;;;19.63;17.63;;;;;;;;;;2074492;28;20656;-59
2021/07/09 00:48:44;;;;;;;23.15;18.65;;;;;;;;;;2067284;28;20185;-57
2021/07/09 00:49:48;;;;;;;21.90;17.52;;;;;;;;;;2073299;28;20226;-55
2021/07/09 00:50:49;;;;;;;21.05;18.98;;;;;;;;;;2069220;28;20185;-60
2021/07/09 00:51:49;;;;;;;19.92;17.27;;;;;;;;;;2073406;28;20672;-57
2021/07/09 00:52:50;;;;;;;21.73;18.10;;;;;;;;;;2074015;28;20208;-59
2021/07/09 00:53:50;;;;;;;20.50;18.35;;;;;;;;;;2066981;28;21693;-56
2021/07/09 00:54:50;;;;;;;22.02;19.52;;;;;;;;;;2071311;28;20251;-58
2021/07/09 00:55:51;;;;;;;27.13;19.33;;;;;;;;;;2071387;28;20175;-57
2021/07/09 00:56:51;;;;;;;20.73;18.40;;;;;;;;;;2070946;28;20195;-59
2021/07/09 00:57:53;;;;;;;20.88;18.65;;;;;;;;;;2068361;28;20261;-60
2021/07/09 00:58:53;;;;;;;22.52;20.25;;;;;;;;;;2072579;28;20645;-60
2021/07/09 00:59:54;;;;;;;24.50;20.17;;;;;;;;;;2067008;28;20197;-60
2021/07/09 01:00:55;;;;;;;22.70;20.35;;;;;;;;;;2071579;28;20201;-59
2021/07/09 01:01:59;;;;;;;25.52;20.88;;;;;;;;;;2066725;28;20524;-59
2021/07/09 01:02:59;;;;;;;25.27;19.95;;;;;;;;;;2070356;28;20227;-59
2021/07/09 01:03:59;;;;;;;22.42;19.00;;;;;;;;;;2072331;28;20209;-60
2021/07/09 01:04:59;;;;;;;25.00;20.08;;;;;;;;;;2071824;28;20593;-58
2021/07/09 01:06:00;;;;;;;25.42;19.92;;;;;;;;;;2066317;28;20264;-59
2021/07/09 01:07:00;;;;;;;21.98;19.33;;;;;;;;;;2068528;28;20208;-58
2021/07/09 01:08:03;;;;;;;22.05;19.63;;;;;;;;;;2072717;28;20572;-60
2021/07/09 01:09:03;;;;;;;23.73;19.25;;;;;;;;;;2068491;28;20253;-60
2021/07/09 01:10:13;;;;;;;23.58;19.77;;;;;;;;;;2071451;28;20180;-60
2021/07/09 01:11:14;;;;;;;22.73;20.42;;;;;;;;;;2069346;28;20195;-60
2021/07/09 01:12:14;;;;;;;28.40;21.95;;;;;;;;;;2073818;28;20644;-60
2021/07/09 01:13:14;;;;;;;24.77;21.05;;;;;;;;;;2070136;28;20192;-59
2021/07/09 01:14:15;;;;;;;23.20;20.40;;;;;;;;;;2068544;28;20274;-58
2021/07/09 01:15:16;;;;;;;23.38;20.58;;;;;;;;;;2074014;28;20652;-59
2021/07/09 01:16:17;;;;;;;23.15;20.67;;;;;;;;;;2069558;28;20273;-60
2021/07/09 01:17:17;;;;;;;24.85;20.73;;;;;;;;;;2070363;28;20169;-60
2021/07/09 01:18:17;;;;;;;27.55;21.17;;;;;;;;;;2073255;28;20211;-60
2021/07/09 01:19:19;;;;;;;23.38;20.83;;;;;;;;;;2073841;28;20184;-60
2021/07/09 01:20:20;;;;;;;25.05;21.17;;;;;;;;;;2069919;28;20646;-60
2021/07/09 01:21:20;;;;;;;22.98;20.65;;;;;;;;;;2066026;28;20170;-59
2021/07/09 01:22:22;;;;;;;24.10;21.23;;;;;;;;;;2069566;28;20191;-58
2021/07/09 01:23:25;;;;;;;24.52;21.90;;;;;;;;;;2070891;28;20173;-60
2021/07/09 01:24:25;;;;;;;25.35;21.08;;;;;;;;;;2071397;28;20169;-59
2021/07/09 01:25:27;;;;;;;26.25;20.75;;;;;;;;;;2069462;28;20305;-60
2021/07/09 01:26:28;;;;;;;25.08;22.23;;;;;;;;;;2071458;28;20575;-60
2021/07/09 01:27:29;;;;;;;23.95;20.75;;;;;;;;;;2067554;28;20186;-60
2021/07/09 01:28:29;;;;;;;23.85;21.42;;;;;;;;;;2071158;28;20181;-60
2021/07/09 01:29:29;;;;;;;24.08;20.23;;;;;;;;;;2063443;28;20182;-60
2021/07/09 01:30:30;;;;;;;22.83;20.55;;;;;;;;;;2071395;28;20189;-55
2021/07/09 01:31:31;;;;;;;23.85;21.05;;;;;;;;;;2071449;28;20641;-60
2021/07/09 01:32:31;;;;;;;22.42;20.17;;;;;;;;;;2067425;28;20193;-60
2021/07/09 01:33:31;;;;;;;22.92;20.73;;;;;;;;;;2070009;28;20661;-59
2021/07/09 01:34:32;;;;;;;21.77;19.58;;;;;;;;;;2073381;28;20172;-59
2021/07/09 01:35:32;;;;;;;25.15;21.55;;;;;;;;;;2073995;28;20213;-60
2021/07/09 01:36:32;;;;;;;20.83;18.63;;;;;;;;;;2068385;28;20185;-60
2021/07/09 01:37:33;;;;;;;20.85;18.63;;;;;;;;;;2073483;28;20185;-60
2021/07/09 01:38:33;;;;;;;23.40;19.38;;;;;;;;;;2066690;28;20184;-60
2021/07/09 01:39:34;;;;;;;20.83;18.55;;;;;;;;;;2071347;28;20196;-60
2021/07/09 01:40:36;;;;;;;21.23;18.48;;;;;;;;;;2069745;28;20239;-60
2021/07/09 01:41:36;;;;;;;20.98;18.45;;;;;;;;;;2072134;28;20856;-59
2021/07/09 01:42:37;;;;;;;22.25;19.88;;;;;;;;;;2066687;28;20216;-60
2021/07/09 01:43:37;;;;;;;22.55;19.02;;;;;;;;;;2067580;28;20173;-60
2021/07/09 01:44:38;;;;;;;21.95;18.08;;;;;;;;;;2072546;28;20169;-60
2021/07/09 01:45:39;;;;;;;24.02;19.30;;;;;;;;;;2066428;28;20236;-58
2021/07/09 01:46:39;;;;;;;23.00;18.58;;;;;;;;;;2071390;28;20193;-59
2021/07/09 01:47:39;;;;;;;20.00;17.83;;;;;;;;;;2071652;28;20654;-59
2021/07/09 01:48:40;;;;;;;19.05;17.08;;;;;;;;;;2073686;28;20715;-58
2021/07/09 01:49:52;;;;;;;19.10;16.58;;;;;;;;;;2066407;28;20174;-57
2021/07/09 01:50:53;;;;;;;21.02;18.30;;;;;;;;;;2067249;28;20268;-59
2021/07/09 01:51:54;;;;;;;19.13;16.80;;;;;;;;;;2071061;28;20173;-57
2021/07/09 01:52:54;;;;;;;19.20;16.17;;;;;;;;;;2072004;28;20298;-59
2021/07/09 01:53:54;;;;;;;18.50;16.48;;;;;;;;;;2071691;28;20176;-61
2021/07/09 01:54:55;;;;;;;19.55;17.58;;;;;;;;;;2073064;28;20260;-59
2021/07/09 01:55:55;;;;;;;17.67;15.88;;;;;;;;;;2073324;28;20183;-59
2021/07/09 01:56:56;;;;;;;23.52;17.83;;;;;;;;;;2069482;28;20610;-58
2021/07/09 01:57:56;;;;;;;19.70;17.27;;;;;;;;;;2068148;28;20207;-61
2021/07/09 01:58:56;;;;;;;22.50;18.52;;;;;;;;;;2065379;28;20180;-60
2021/07/09 01:59:57;;;;;;;22.52;17.83;;;;;;;;;;2068549;28;20279;-61
2021/07/09 02:00:57;;;;;;;24.13;18.55;;;;;;;;;;2073194;28;20180;-59
2021/07/09 02:01:58;;;;;;;23.33;19.65;;;;;;;;;;2073136;28;20180;-59
2021/07/09 02:02:58;;;;;;;23.95;20.63;;;;;;;;;;2071764;28;20169;-58
2021/07/09 02:03:58;;;;;;;23.98;19.50;;;;;;;;;;2068780;28;20811;-59
2021/07/09 02:04:58;;;;;;;24.15;21.15;;;;;;;;;;2070263;28;20189;-59
2021/07/09 02:05:59;;;;;;;22.73;20.25;;;;;;;;;;2067785;28;20432;-60
2021/07/09 02:06:59;;;;;;;22.15;18.95;;;;;;;;;;2071167;28;20230;-60
2021/07/09 02:08:00;;;;;;;24.38;21.10;;;;;;;;;;2065236;28;20198;-58
2021/07/09 02:09:00;;;;;;;21.73;19.25;;;;;;;;;;2074046;28;20169;-58
2021/07/09 02:10:01;;;;;;;28.98;19.70;;;;;;;;;;2071479;28;20204;-59
2021/07/09 02:11:01;;;;;;;24.90;20.38;;;;;;;;;;2067183;28;20272;-57
2021/07/09 02:12:02;;;;;;;27.42;19.98;;;;;;;;;;2068616;28;20189;-59
2021/07/09 02:13:03;;;;;;;27.95;20.98;;;;;;;;;;2073547;28;20193;-58
2021/07/09 02:14:03;;;;;;;24.70;22.00;;;;;;;;;;2065432;28;20268;-59
2021/07/09 02:15:05;;;;;;;26.30;21.35;;;;;;;;;;2065769;28;20181;-58
2021/07/09 02:16:06;;;;;;;24.65;20.25;;;;;;;;;;2068237;28;20161;-57
2021/07/09 02:17:07;;;;;;;27.17;20.10;;;;;;;;;;2069055;28;20185;-60
2021/07/09 02:18:07;;;;;;;26.25;21.38;;;;;;;;;;2072698;28;20244;-59
2021/07/09 02:19:08;;;;;;;28.08;22.00;;;;;;;;;;2073385;28;20181;-59
2021/07/09 02:20:10;;;;;;;24.45;21.85;;;;;;;;;;2072081;28;20173;-60
2021/07/09 02:21:10;;;;;;;25.67;21.95;;;;;;;;;;2069989;28;20189;-60
2021/07/09 02:22:12;;;;;;;27.80;21.27;;;;;;;;;;2068834;28;20657;-60
2021/07/09 02:23:14;;;;;;;27.15;21.83;;;;;;;;;;2071424;28;20173;-60
2021/07/09 02:24:15;;;;;;;27.38;22.40;;;;;;;;;;2069733;28;20231;-60
2021/07/09 02:25:16;;;;;;;24.73;21.42;;;;;;;;;;2069085;28;20165;-59
2021/07/09 02:26:16;;;;;;;27.65;21.10;;;;;;;;;;2071015;28;20640;-61
2021/07/09 02:27:17;;;;;;;28.58;21.63;;;;;;;;;;2069174;28;20181;-60
2021/07/09 02:28:17;;;;;;;26.73;22.70;;;;;;;;;;2067479;28;20208;-58
2021/07/09 02:29:17;;;;;;;29.27;22.58;;;;;;;;;;2065200;28;20172;-60
2021/07/09 02:30:18;;;;;;;32.28;23.63;;;;;;;;;;2067362;28;20194;-60
2021/07/09 02:31:18;;;;;;;25.02;22.15;;;;;;;;;;2069937;28;20175;-61
2021/07/09 02:32:18;;;;;;;28.25;22.60;;;;;;;;;;2068629;28;20185;-59
2021/07/09 02:33:19;;;;;;;23.80;21.08;;;;;;;;;;2065293;28;20589;-60
2021/07/09 02:34:19;;;;;;;25.15;21.13;;;;;;;;;;2071756;28;20173;-60
2021/07/09 02:35:20;;;;;;;30.45;23.13;;;;;;;;;;2068566;28;20654;-60
2021/07/09 02:36:21;;;;;;;25.67;22.65;;;;;;;;;;2072031;28;20270;-58
2021/07/09 02:37:21;;;;;;;27.25;23.65;;;;;;;;;;2070571;28;20177;-60
2021/07/09 02:38:21;;;;;;;23.92;21.10;;;;;;;;;;2072627;28;20278;-60
2021/07/09 02:39:22;;;;;;;28.95;21.75;;;;;;;;;;2068271;28;20216;-57
2021/07/09 02:40:24;;;;;;;24.08;21.25;;;;;;;;;;2070689;28;20226;-60
2021/07/09 02:41:24;;;;;;;28.55;21.50;;;;;;;;;;2067557;28;20441;-60
2021/07/09 02:42:24;;;;;;;25.20;22.40;;;;;;;;;;2066687;28;20653;-59
2021/07/09 02:43:24;;;;;;;26.73;22.02;;;;;;;;;;2070205;28;20187;-60
2021/07/09 02:44:25;;;;;;;24.60;19.98;;;;;;;;;;2072755;28;20168;-60
2021/07/09 02:45:26;;;;;;;25.38;22.35;;;;;;;;;;2068261;28;20172;-58
2021/07/09 02:46:26;;;;;;;26.77;23.05;;;;;;;;;;2072312;28;20215;-59
2021/07/09 02:47:26;;;;;;;23.77;20.85;;;;;;;;;;2071496;28;20183;-60
2021/07/09 02:48:27;;;;;;;26.42;22.77;;;;;;;;;;2071666;28;20573;-60
2021/07/09 02:49:27;;;;;;;25.23;20.67;;;;;;;;;;2067638;28;20189;-60
2021/07/09 02:50:27;;;;;;;26.33;19.48;;;;;;;;;;2071095;28;20223;-60
2021/07/09 02:51:27;;;;;;;24.70;20.27;;;;;;;;;;2067330;28;20786;-60
2021/07/09 02:52:28;;;;;;;29.90;20.85;;;;;;;;;;2070950;28;20177;-60
2021/07/09 02:53:28;;;;;;;26.65;22.45;;;;;;;;;;2069064;28;20181;-60
2021/07/09 02:54:28;;;;;;;26.25;21.05;;;;;;;;;;2068939;28;20191;-60
2021/07/09 02:55:28;;;;;;;23.88;20.80;;;;;;;;;;2073064;28;20661;-60
2021/07/09 02:56:29;;;;;;;27.02;20.20;;;;;;;;;;2071970;28;20187;-58
2021/07/09 02:57:29;;;;;;;24.48;20.50;;;;;;;;;;2067044;28;20228;-58
2021/07/09 02:58:31;;;;;;;23.58;20.45;;;;;;;;;;2075804;22;20248;-54
2021/07/09 02:59:32;;;;;;;21.67;18.65;;;;;;;;;;2059336;28;20869;-55
2021/07/09 03:00:32;;;;;;;25.67;20.60;;;;;;;;;;2065152;28;20221;-53
2021/07/09 03:01:33;;;;;;;26.15;20.67;;;;;;;;;;2062421;28;20224;-56
2021/07/09 03:02:34;;;;;;;22.55;19.48;;;;;;;;;;2065230;28;20178;-53
2021/07/09 03:03:34;;;;;;;25.05;20.20;;;;;;;;;;2066851;28;20176;-52
2021/07/09 03:04:34;;;;;;;22.13;19.73;;;;;;;;;;2069381;28;20192;-56
2021/07/09 03:05:34;;;;;;;26.90;19.83;;;;;;;;;;2060269;28;20174;-55
2021/07/09 03:06:35;;;;;;;22.73;20.20;;;;;;;;;;2055020;28;20174;-55
2021/07/09 03:07:36;;;;;;;22.52;20.15;;;;;;;;;;2053590;28;20197;-53
2021/07/09 03:08:36;;;;;;;28.52;21.08;;;;;;;;;;2048053;28;20195;-54
2021/07/09 03:09:36;;;;;;;25.95;18.67;;;;;;;;;;2060151;28;20273;-53
2021/07/09 03:10:36;;;;;;;25.98;19.70;;;;;;;;;;2049227;28;20926;-56
2021/07/09 03:11:37;;;;;;;25.70;21.02;;;;;;;;;;2053312;28;20175;-55
2021/07/09 03:12:38;;;;;;;23.27;19.40;;;;;;;;;;2071193;28;20169;-57
2021/07/09 03:13:39;;;;;;;24.13;20.15;;;;;;;;;;2066083;28;20181;-56
2021/07/09 03:14:41;;;;;;;21.45;19.00;;;;;;;;;;2058802;28;20189;-56
2021/07/09 03:15:41;;;;;;;23.15;20.20;;;;;;;;;;2063615;28;20669;-54
2021/07/09 03:16:41;;;;;;;21.23;18.42;;;;;;;;;;2057102;28;20174;-56
2021/07/09 03:17:41;;;;;;;23.98;19.67;;;;;;;;;;2061833;28;20225;-52
2021/07/09 03:18:42;;;;;;;24.50;19.35;;;;;;;;;;2056674;28;20674;-57
2021/07/09 03:19:42;;;;;;;22.75;20.35;;;;;;;;;;2065132;28;20205;-55
2021/07/09 03:20:42;;;;;;;23.17;19.60;;;;;;;;;;2065916;28;20540;-53
2021/07/09 03:21:42;;;;;;;26.00;20.48;;;;;;;;;;2065216;28;20535;-54
2021/07/09 03:22:43;;;;;;;25.30;19.77;;;;;;;;;;2065167;28;20220;-55
2021/07/09 03:23:43;;;;;;;24.40;19.80;;;;;;;;;;2057318;28;20257;-54
2021/07/09 03:24:43;;;;;;;23.38;18.73;;;;;;;;;;2059544;28;20186;-51
2021/07/09 03:25:43;;;;;;;26.50;20.05;;;;;;;;;;2064484;28;20178;-54
2021/07/09 03:26:44;;;;;;;24.98;21.40;;;;;;;;;;2065207;28;20174;-54
2021/07/09 03:27:44;;;;;;;23.35;20.23;;;;;;;;;;2064847;28;20664;-53
2021/07/09 03:28:44;;;;;;;27.92;21.92;;;;;;;;;;2064342;28;20194;-57
2021/07/09 03:29:44;;;;;;;26.08;19.85;;;;;;;;;;2064355;28;20205;-55
2021/07/09 03:30:45;;;;;;;24.75;20.30;;;;;;;;;;2071034;28;20177;-55
2021/07/09 03:31:45;;;;;;;25.15;19.88;;;;;;;;;;2057703;28;20562;-54
2021/07/09 03:32:46;;;;;;;22.17;19.63;;;;;;;;;;2068333;28;20196;-56
2021/07/09 03:33:46;;;;;;;21.55;19.50;;;;;;;;;;2055501;28;20659;-53
2021/07/09 03:34:46;;;;;;;21.77;19.45;;;;;;;;;;2054089;28;20178;-56
2021/07/09 03:35:47;;;;;;;23.42;19.67;;;;;;;;;;2052662;28;20186;-56
2021/07/09 03:36:48;;;;;;;20.58;17.77;;;;;;;;;;2065051;28;20174;-56
2021/07/09 03:37:48;;;;;;;23.27;20.05;;;;;;;;;;2060982;28;20166;-53
2021/07/09 03:38:49;;;;;;;23.83;19.10;;;;;;;;;;2064811;28;20836;-53
2021/07/09 03:39:49;;;;;;;23.23;19.13;;;;;;;;;;2056433;28;20214;-50
2021/07/09 03:40:49;;;;;;;21.17;18.88;;;;;;;;;;2056769;28;20176;-53
2021/07/09 03:41:49;;;;;;;22.95;18.50;;;;;;;;;;2064680;28;20285;-56
2021/07/09 03:42:50;;;;;;;19.85;17.85;;;;;;;;;;2071217;28;20188;-57
2021/07/09 03:43:50;;;;;;;21.58;18.13;;;;;;;;;;2064456;28;20177;-56
2021/07/09 03:44:50;;;;;;;20.52;18.40;;;;;;;;;;2056368;28;20188;-52
2021/07/09 03:45:50;;;;;;;21.30;18.90;;;;;;;;;;2042462;29;20176;-54
2021/07/09 03:46:51;;;;;;;23.20;19.17;;;;;;;;;;2056625;28;20190;-55
2021/07/09 03:47:51;;;;;;;23.27;18.15;;;;;;;;;;2064880;28;20217;-54
2021/07/09 03:48:51;;;;;;;24.20;17.95;;;;;;;;;;2056276;28;20216;-54
2021/07/09 03:49:52;;;;;;;21.00;17.35;;;;;;;;;;2057009;28;20273;-54
2021/07/09 03:50:52;;;;;;;22.52;17.65;;;;;;;;;;2065317;28;20197;-54
2021/07/09 03:51:52;;;;;;;22.10;18.17;;;;;;;;;;2072987;28;20276;-52
2021/07/09 03:52:52;;;;;;;21.50;17.90;;;;;;;;;;2071802;28;20185;-56
2021/07/09 03:53:54;;;;;;;20.23;17.48;;;;;;;;;;2067081;28;20651;-52
2021/07/09 03:54:55;;;;;;;19.80;16.52;;;;;;;;;;2065267;28;20682;-52
2021/07/09 03:55:55;;;;;;;22.88;17.45;;;;;;;;;;2065372;28;20181;-54
2021/07/09 03:56:55;;;;;;;20.38;16.83;;;;;;;;;;2065353;28;20630;-53
2021/07/09 03:57:55;;;;;;;22.48;17.70;;;;;;;;;;2065514;28;20185;-53
2021/07/09 03:58:56;;;;;;;18.25;16.33;;;;;;;;;;2066439;28;20216;-52
2021/07/09 03:59:56;;;;;;;19.20;16.77;;;;;;;;;;2071779;28;20196;-55
2021/07/09 04:00:57;;;;;;;21.83;16.45;;;;;;;;;;2067389;28;20264;-54
2021/07/09 04:01:57;;;;;;;20.48;16.92;;;;;;;;;;2060303;28;20186;-51
2021/07/09 04:02:57;;;;;;;19.05;16.52;;;;;;;;;;2064632;28;20173;-55
2021/07/09 04:03:58;;;;;;;16.45;14.25;;;;;;;;;;2072434;28;20172;-54
2021/07/09 04:04:58;;;;;;;19.75;15.40;;;;;;;;;;2066247;28;20645;-53
2021/07/09 04:05:58;;;;;;;19.08;15.63;;;;;;;;;;2071869;28;20185;-53
2021/07/09 04:06:58;;;;;;;15.48;13.88;;;;;;;;;;2067373;28;20168;-51
2021/07/09 04:07:59;;;;;;;17.88;15.73;;;;;;;;;;2065221;28;20180;-54
2021/07/09 04:08:59;;;;;;;18.85;14.85;;;;;;;;;;2065143;28;20188;-57
2021/07/09 04:09:59;;;;;;;16.58;14.27;;;;;;;;;;2065703;28;20642;-55
2021/07/09 04:11:00;;;;;;;21.25;15.95;;;;;;;;;;2060940;28;20199;-55
2021/07/09 04:12:00;;;;;;;16.73;14.57;;;;;;;;;;2065354;28;20177;-54
2021/07/09 04:13:00;;;;;;;19.05;15.07;;;;;;;;;;2063417;28;20177;-57
2021/07/09 04:14:00;;;;;;;17.95;15.20;;;;;;;;;;2058777;28;20183;-53
2021/07/09 04:15:00;;;;;;;20.08;15.75;;;;;;;;;;2063108;28;20204;-55
2021/07/09 04:16:01;;;;;;;19.10;17.15;;;;;;;;;;2059020;28;20620;-57
2021/07/09 04:17:01;;;;;;;19.17;15.65;;;;;;;;;;2064763;28;20173;-57
2021/07/09 04:18:01;;;;;;;19.70;16.10;;;;;;;;;;2070127;28;20260;-55
2021/07/09 04:19:02;;;;;;;20.23;16.83;;;;;;;;;;2064427;28;20184;-58
2021/07/09 04:20:03;;;;;;;17.92;16.13;;;;;;;;;;2055849;28;20627;-55
2021/07/09 04:21:03;;;;;;;17.05;15.20;;;;;;;;;;2055151;28;20182;-55
2021/07/09 04:22:04;;;;;;;17.73;15.52;;;;;;;;;;2047512;28;20186;-53
2021/07/09 04:23:04;;;;;;;20.52;14.70;;;;;;;;;;2050665;28;20265;-54
2021/07/09 04:24:04;;;;;;;16.38;14.60;;;;;;;;;;2070178;28;20184;-55
2021/07/09 04:25:07;;;;;;;17.25;14.57;;;;;;;;;;2062534;28;20256;-54
2021/07/09 04:26:08;;;;;;;15.88;13.70;;;;;;;;;;2065842;28;20876;-55
2021/07/09 04:27:09;;;;;;;17.65;14.98;;;;;;;;;;2067175;28;20165;-54
2021/07/09 04:28:09;;;;;;;16.98;14.63;;;;;;;;;;2059798;28;20181;-52
2021/07/09 04:29:09;;;;;;;15.27;13.75;;;;;;;;;;2055976;28;20197;-55
2021/07/09 04:30:11;;;;;;;16.48;14.32;;;;;;;;;;2060768;28;20248;-52
2021/07/09 04:31:11;;;;;;;14.48;13.07;;;;;;;;;;2069306;28;20177;-54
2021/07/09 04:32:11;;;;;;;15.90;13.80;;;;;;;;;;2061731;28;20725;-56
2021/07/09 04:33:12;;;;;;;16.55;14.70;;;;;;;;;;2060630;28;20217;-57
2021/07/09 04:34:12;;;;;;;14.60;13.20;;;;;;;;;;2062168;28;20189;-54
2021/07/09 04:35:13;;;;;;;14.38;12.90;;;;;;;;;;2048813;29;20182;-52
2021/07/09 04:36:13;;;;;;;16.02;12.55;;;;;;;;;;2048429;28;20699;-53
2021/07/09 04:37:13;;;;;;;18.45;13.90;;;;;;;;;;2060606;28;20181;-54
2021/07/09 04:38:13;;;;;;;14.73;13.32;;;;;;;;;;2066788;28;20255;-56
2021/07/09 04:39:14;;;;;;;15.68;14.00;;;;;;;;;;2068308;28;20169;-53
2021/07/09 04:40:15;;;;;;;14.88;13.38;;;;;;;;;;2059301;28;20226;-51
2021/07/09 04:41:15;;;;;;;16.77;13.05;;;;;;;;;;2061003;28;20193;-55
2021/07/09 04:42:16;;;;;;;15.60;12.85;;;;;;;;;;2063328;28;20243;-56
2021/07/09 04:43:16;;;;;;;17.83;12.68;;;;;;;;;;2068873;28;20201;-54
2021/07/09 04:44:16;;;;;;;13.32;12.07;;;;;;;;;;2055493;28;20785;-53
2021/07/09 04:45:17;;;;;;;14.95;13.38;;;;;;;;;;2056588;28;20707;-56
2021/07/09 04:46:17;;;;;;;14.82;12.32;;;;;;;;;;2062535;28;20561;-57
2021/07/09 04:47:17;;;;;;;15.85;12.88;;;;;;;;;;2061432;28;20174;-56
2021/07/09 04:48:17;;;;;;;13.07;11.70;;;;;;;;;;2064383;28;20265;-57
2021/07/09 04:49:18;;;;;;;15.52;12.43;;;;;;;;;;2068556;28;20173;-58
2021/07/09 04:50:18;;;;;;;15.35;13.70;;;;;;;;;;2054704;28;20667;-52
2021/07/09 04:51:18;;;;;;;16.33;14.20;;;;;;;;;;2055577;28;20603;-55
2021/07/09 04:52:19;;;;;;;18.58;13.10;;;;;;;;;;2056059;28;20635;-56
2021/07/09 04:53:19;;;;;;;16.75;13.30;;;;;;;;;;2057049;28;20197;-57
2021/07/09 04:54:20;;;;;;;14.15;12.05;;;;;;;;;;2061481;28;20256;-53
2021/07/09 04:55:20;;;;;;;13.85;11.23;;;;;;;;;;2063684;28;20222;-51
2021/07/09 04:56:20;;;;;;;14.23;12.07;;;;;;;;;;2064176;28;20681;-55
2021/07/09 04:57:21;;;;;;;18.90;13.60;;;;;;;;;;2059724;28;20201;-52
2021/07/09 04:58:21;;;;;;;14.27;11.85;;;;;;;;;;2064083;28;20627;-53
2021/07/09 04:59:21;;;;;;;13.70;11.93;;;;;;;;;;2065477;28;20180;-54
2021/07/09 05:00:21;;;;;;;13.65;12.23;;;;;;;;;;2061961;28;20240;-52
2021/07/09 05:01:22;;;;;;;15.30;12.23;;;;;;;;;;2060600;28;20182;-54
2021/07/09 05:02:22;;;;;;;14.80;12.98;;;;;;;;;;2061568;28;20232;-52
2021/07/09 05:03:22;;;;;;;13.80;12.30;;;;;;;;;;2067773;28;20204;-56
2021/07/09 05:04:22;;;;;;;16.48;12.65;;;;;;;;;;2071249;28;20200;-56
2021/07/09 05:05:23;;;;;;;14.93;12.60;;;;;;;;;;2068330;28;20264;-54
2021/07/09 05:06:23;;;;;;;16.30;13.25;;;;;;;;;;2067466;28;20189;-54
2021/07/09 05:07:23;;;;;;;15.38;13.13;;;;;;;;;;2059582;28;20178;-53
2021/07/09 05:08:23;;;;;;;15.57;12.68;;;;;;;;;;2062213;28;20202;-51
2021/07/09 05:09:24;;;;;;;17.60;13.45;;;;;;;;;;2058904;28;20249;-53
2021/07/09 05:10:24;;;;;;;15.52;12.88;;;;;;;;;;2063157;28;20221;-52
2021/07/09 05:11:24;;;;;;;21.45;14.38;;;;;;;;;;2063972;28;20197;-53
2021/07/09 05:12:24;;;;;;;15.80;13.38;;;;;;;;;;2064980;28;20212;-50
2021/07/09 05:13:25;;;;;;;14.48;12.88;;;;;;;;;;2064015;28;20260;-52
2021/07/09 05:14:25;;;;;;;15.45;12.88;;;;;;;;;;2060331;28;20178;-54
2021/07/09 05:15:25;;;;;;;15.50;13.13;;;;;;;;;;2063206;28;20276;-56
2021/07/09 05:16:25;;;;;;;16.60;12.95;;;;;;;;;;2067346;28;20169;-53
2021/07/09 05:17:26;;;;;;;15.82;12.90;;;;;;;;;;2058558;28;20233;-60
2021/07/09 05:18:26;;;;;;;14.27;12.88;;;;;;;;;;2053659;28;20198;-52
2021/07/09 05:19:26;;;;;;;14.95;12.98;;;;;;;;;;2055033;28;20179;-51
2021/07/09 05:20:27;;;;;;;14.82;12.50;;;;;;;;;;2065601;28;20181;-47
2021/07/09 05:21:27;;;;;;;14.05;12.32;;;;;;;;;;2052943;28;20257;-50
2021/07/09 05:22:28;;;;;;;11.70;10.48;;;;;;;;;;2047405;28;20270;-56
2021/07/09 05:23:28;;;;;;;14.40;12.88;;;;;;;;;;2050349;28;20171;-53
2021/07/09 05:24:28;;;;;;;15.00;12.63;;;;;;;;;;2054921;28;20633;-53
2021/07/09 05:25:29;;;;;;;16.33;13.90;;;;;;;;;;2063792;28;20173;-55
2021/07/09 05:26:29;;;;;;;13.48;11.05;;;;;;;;;;2064262;28;20244;-56
2021/07/09 05:27:31;;;;;;;16.30;13.48;;;;;;;;;;2070365;28;20176;-52
2021/07/09 05:28:31;;;;;;;17.33;12.07;;;;;;;;;;2065150;28;20185;-54
2021/07/09 05:29:31;;;;;;;14.75;13.35;;;;;;;;;;2064216;28;20220;-55
2021/07/09 05:30:32;;;;;;;14.57;12.35;;;;;;;;;;2064616;28;20276;-54
2021/07/09 05:31:33;;;;;;;15.00;12.93;;;;;;;;;;2060941;28;20181;-53
2021/07/09 05:32:34;;;;;;;17.73;15.82;;;;;;;;;;2063276;28;20181;-57
2021/07/09 05:33:34;;;;;;;15.52;11.32;;;;;;;;;;2065349;28;20201;-55
2021/07/09 05:34:35;;;;;;;13.63;12.23;;;;;;;;;;2054127;28;20260;-57
2021/07/09 05:35:36;;;;;;;14.60;11.25;;;;;;;;;;2056940;28;20198;-53
2021/07/09 05:36:36;;;;;;;12.75;10.48;;;;;;;;;;2061532;28;20224;-53
2021/07/09 05:37:37;;;;;;;13.10;11.30;;;;;;;;;;2065180;28;20231;-56
2021/07/09 05:38:37;;;;;;;15.20;11.93;;;;;;;;;;2065579;28;20216;-56
2021/07/09 05:39:37;;;;;;;11.70;10.50;;;;;;;;;;2059282;28;20353;-57
2021/07/09 05:40:38;;;;;;;13.90;11.40;;;;;;;;;;2064883;28;20187;-55
2021/07/09 05:41:38;;;;;;;12.50;11.23;;;;;;;;;;2061153;28;20186;-56
2021/07/09 05:42:38;;;;;;;15.27;11.43;;;;;;;;;;2065473;28;20174;-58
2021/07/09 05:43:39;;;;;;;14.07;11.50;;;;;;;;;;2061141;28;20254;-58
2021/07/09 05:44:39;;;;;;;13.73;11.10;;;;;;;;;;2065297;28;20239;-58
2021/07/09 05:45:40;;;;;;;12.45;11.23;;;;;;;;;;2066401;28;20686;-52
2021/07/09 05:46:40;;;;;;;13.07;10.60;;;;;;;;;;2064669;28;20335;-50
2021/07/09 05:47:40;;;;;;;12.35;11.05;;;;;;;;;;2057022;28;20827;-51
2021/07/09 05:48:40;;;;;;;12.23;10.38;;;;;;;;;;2056957;28;20715;-53
2021/07/09 05:49:41;;;;;;;12.95;10.45;;;;;;;;;;2054326;28;20198;-54
2021/07/09 05:50:41;;;;;;;12.93;10.40;;;;;;;;;;2062988;28;20269;-54
2021/07/09 05:51:41;;;;;;;14.52;12.25;;;;;;;;;;2062284;28;20185;-56
2021/07/09 05:52:42;;;;;;;12.52;11.27;;;;;;;;;;2056615;28;20636;-53